Time;durP1;ratioP1;P1;durP2;ratioP2;P2;SDS_P1;SDS_P2;PMS_P1;PMS_P2;Temp;Humidity;BMP_temperature;BMP_pressure;BME280_temperature;BME280_humidity;BME280_pressure;Samples;Min_cycle;Max_cycle;Signal;HPM_P1;HPM_P2
2021/08/06 00:01:44;;;;;;;5.37;4.87;;;;;;;;;;5113572;28;20451;-74
2021/08/06 00:04:13;;;;;;;7.30;4.63;;;;;;;;;;5113794;28;20962;-74
2021/08/06 00:06:40;;;;;;;4.93;4.33;;;;;;;;;;5114383;28;20437;-74
2021/08/06 00:09:09;;;;;;;4.43;4.00;;;;;;;;;;5113877;28;20431;-74
2021/08/06 00:11:36;;;;;;;5.00;4.70;;;;;;;;;;5113722;28;20442;-74
2021/08/06 00:14:03;;;;;;;5.10;4.60;;;;;;;;;;5113739;28;20452;-74
2021/08/06 00:16:30;;;;;;;6.60;5.00;;;;;;;;;;5114587;28;20435;-73
2021/08/06 00:18:58;;;;;;;5.03;4.63;;;;;;;;;;5113425;28;20923;-74
2021/08/06 00:21:26;;;;;;;4.53;3.60;;;;;;;;;;5113704;28;20445;-74
2021/08/06 00:23:53;;;;;;;4.77;4.37;;;;;;;;;;5113704;28;20459;-74
2021/08/06 00:26:21;;;;;;;5.47;4.30;;;;;;;;;;5114024;28;20436;-74
2021/08/06 00:28:48;;;;;;;5.80;4.20;;;;;;;;;;5113328;28;20439;-75
2021/08/06 00:31:15;;;;;;;3.90;3.60;;;;;;;;;;5114323;28;20446;-74
2021/08/06 00:33:42;;;;;;;4.23;3.93;;;;;;;;;;5113971;28;20472;-73
2021/08/06 00:36:10;;;;;;;4.23;3.27;;;;;;;;;;5113552;28;20442;-73
2021/08/06 00:38:38;;;;;;;4.23;3.93;;;;;;;;;;5113529;28;20529;-73
2021/08/06 00:41:05;;;;;;;5.93;3.63;;;;;;;;;;5113514;28;20449;-73
2021/08/06 00:43:32;;;;;;;3.90;3.60;;;;;;;;;;5113200;28;20978;-73
2021/08/06 00:46:01;;;;;;;4.37;3.90;;;;;;;;;;5113663;28;20437;-73
2021/08/06 00:48:28;;;;;;;4.47;4.07;;;;;;;;;;5113171;28;20455;-73
2021/08/06 00:50:55;;;;;;;4.03;3.37;;;;;;;;;;5113250;28;20445;-74
2021/08/06 00:53:23;;;;;;;5.17;3.80;;;;;;;;;;5112821;28;20476;-73
2021/08/06 00:55:51;;;;;;;5.07;3.80;;;;;;;;;;5113263;28;20799;-74
2021/08/06 00:58:19;;;;;;;4.20;3.80;;;;;;;;;;5113757;28;20443;-73
2021/08/06 01:00:48;;;;;;;6.30;3.97;;;;;;;;;;5113600;28;20446;-73
2021/08/06 01:03:19;;;;;;;4.47;4.17;;;;;;;;;;5114783;28;20946;-73
2021/08/06 01:05:51;;;;;;;4.07;3.77;;;;;;;;;;5116840;28;20495;-73
2021/08/06 01:08:20;;;;;;;4.23;3.83;;;;;;;;;;5117485;28;20534;-73
2021/08/06 01:10:48;;;;;;;4.00;3.60;;;;;;;;;;5117001;28;20450;-73
2021/08/06 01:13:19;;;;;;;4.10;3.80;;;;;;;;;;5117044;28;20493;-73
2021/08/06 01:15:50;;;;;;;4.73;4.10;;;;;;;;;;5116591;28;20442;-73
2021/08/06 01:18:18;;;;;;;4.20;3.80;;;;;;;;;;5117366;28;20431;-73
2021/08/06 01:20:48;;;;;;;4.83;3.10;;;;;;;;;;5117067;28;20445;-73
2021/08/06 01:23:17;;;;;;;3.70;3.40;;;;;;;;;;5116524;28;20466;-73
2021/08/06 01:25:49;;;;;;;3.80;3.50;;;;;;;;;;5116394;28;21007;-73
2021/08/06 01:28:17;;;;;;;4.20;3.87;;;;;;;;;;5116629;28;20794;-73
2021/08/06 01:30:45;;;;;;;4.37;4.07;;;;;;;;;;5116577;28;20432;-73
2021/08/06 01:33:13;;;;;;;4.20;3.80;;;;;;;;;;5116463;28;20482;-73
2021/08/06 01:35:40;;;;;;;4.60;3.50;;;;;;;;;;5116791;28;20442;-73
2021/08/06 01:38:08;;;;;;;4.77;4.37;;;;;;;;;;5116481;28;20439;-73
2021/08/06 01:40:38;;;;;;;5.10;3.90;;;;;;;;;;5116097;28;20438;-73
2021/08/06 01:43:12;;;;;;;4.47;3.37;;;;;;;;;;5116619;28;20905;-73
2021/08/06 01:45:42;;;;;;;4.57;4.17;;;;;;;;;;5116548;28;20457;-73
2021/08/06 01:48:11;;;;;;;5.97;3.60;;;;;;;;;;5116048;28;20419;-73
2021/08/06 01:50:40;;;;;;;4.20;3.90;;;;;;;;;;5115924;28;20443;-73
2021/08/06 01:53:08;;;;;;;4.43;3.90;;;;;;;;;;5116109;28;20474;-74
2021/08/06 01:55:40;;;;;;;3.83;3.47;;;;;;;;;;5116216;28;20443;-73
2021/08/06 01:58:09;;;;;;;4.50;3.70;;;;;;;;;;5116342;28;20426;-73
2021/08/06 02:00:36;;;;;;;4.57;4.17;;;;;;;;;;5115705;28;20442;-73
2021/08/06 02:03:04;;;;;;;3.80;3.40;;;;;;;;;;5116147;28;20447;-74
2021/08/06 02:05:31;;;;;;;4.47;4.07;;;;;;;;;;5116235;28;20430;-74
2021/08/06 02:07:59;;;;;;;5.17;4.70;;;;;;;;;;5115891;28;20440;-73
2021/08/06 02:10:26;;;;;;;4.70;3.80;;;;;;;;;;5116225;28;20794;-73
2021/08/06 02:12:53;;;;;;;4.40;4.00;;;;;;;;;;5115423;28;20471;-73
2021/08/06 02:15:21;;;;;;;4.30;4.00;;;;;;;;;;5114419;28;20439;-73
2021/08/06 02:17:49;;;;;;;5.00;3.73;;;;;;;;;;5116354;28;20431;-73
2021/08/06 02:20:17;;;;;;;3.97;3.67;;;;;;;;;;5115362;28;20435;-73
2021/08/06 02:22:46;;;;;;;4.37;3.97;;;;;;;;;;5115397;28;20446;-73
2021/08/06 02:25:13;;;;;;;4.57;4.10;;;;;;;;;;5115707;28;20445;-73
2021/08/06 02:27:41;;;;;;;3.90;3.50;;;;;;;;;;5115140;28;20933;-74
2021/08/06 02:30:09;;;;;;;4.20;3.90;;;;;;;;;;5115133;28;20436;-75
2021/08/06 02:32:38;;;;;;;7.50;3.77;;;;;;;;;;5114995;28;20479;-74
2021/08/06 02:35:06;;;;;;;4.50;4.10;;;;;;;;;;5115907;28;20445;-74
2021/08/06 02:37:37;;;;;;;4.50;4.10;;;;;;;;;;5115612;28;20869;-74
2021/08/06 02:40:04;;;;;;;4.00;3.70;;;;;;;;;;5115901;28;20428;-74
2021/08/06 02:42:33;;;;;;;3.80;3.50;;;;;;;;;;5115735;28;20439;-74
2021/08/06 02:45:00;;;;;;;4.50;4.10;;;;;;;;;;5115142;28;20439;-74
2021/08/06 02:47:28;;;;;;;3.90;3.50;;;;;;;;;;5115094;28;20456;-74
2021/08/06 02:49:56;;;;;;;4.20;3.70;;;;;;;;;;5115930;28;20878;-74
2021/08/06 02:52:23;;;;;;;4.80;4.13;;;;;;;;;;5114882;28;20438;-74
2021/08/06 02:54:51;;;;;;;3.93;3.60;;;;;;;;;;5115158;28;20438;-74
2021/08/06 02:57:18;;;;;;;4.83;4.43;;;;;;;;;;5114981;28;20436;-74
2021/08/06 02:59:45;;;;;;;4.20;3.90;;;;;;;;;;5114831;28;20439;-74
2021/08/06 03:02:12;;;;;;;4.33;3.93;;;;;;;;;;5114850;28;20441;-74
2021/08/06 03:04:40;;;;;;;5.27;4.20;;;;;;;;;;5114790;28;20439;-74
2021/08/06 03:07:08;;;;;;;5.20;4.00;;;;;;;;;;5114767;28;20439;-73
2021/08/06 03:09:35;;;;;;;4.70;4.30;;;;;;;;;;5114351;28;20950;-73
2021/08/06 03:12:02;;;;;;;4.30;4.00;;;;;;;;;;5114926;28;20523;-74
2021/08/06 03:14:30;;;;;;;4.83;4.00;;;;;;;;;;5114559;28;20481;-74
2021/08/06 03:16:57;;;;;;;4.87;4.37;;;;;;;;;;5114519;28;20447;-74
2021/08/06 03:19:24;;;;;;;3.43;3.17;;;;;;;;;;5114444;28;20448;-73
2021/08/06 03:21:51;;;;;;;4.40;4.10;;;;;;;;;;5114437;28;20441;-73
2021/08/06 03:24:20;;;;;;;3.97;3.67;;;;;;;;;;5114051;28;20467;-73
2021/08/06 03:26:47;;;;;;;5.70;4.30;;;;;;;;;;5113862;28;20953;-74
2021/08/06 03:29:14;;;;;;;4.93;4.50;;;;;;;;;;5114033;28;20453;-73
2021/08/06 03:31:41;;;;;;;4.80;4.30;;;;;;;;;;5114027;28;20444;-74
2021/08/06 03:34:08;;;;;;;6.40;4.03;;;;;;;;;;5114512;28;20906;-73
2021/08/06 03:36:37;;;;;;;4.33;3.93;;;;;;;;;;5114564;28;20741;-73
2021/08/06 03:39:04;;;;;;;5.03;4.10;;;;;;;;;;5114256;28;20466;-74
2021/08/06 03:41:33;;;;;;;9.67;4.00;;;;;;;;;;5113822;28;20456;-73
2021/08/06 03:44:00;;;;;;;6.90;3.97;;;;;;;;;;5114109;28;20871;-73
2021/08/06 03:46:28;;;;;;;4.43;4.03;;;;;;;;;;5114156;28;20776;-74
2021/08/06 03:48:55;;;;;;;4.70;4.20;;;;;;;;;;5113786;28;20439;-74
2021/08/06 03:51:22;;;;;;;4.70;4.30;;;;;;;;;;5114019;28;20797;-74
2021/08/06 03:53:49;;;;;;;5.30;4.43;;;;;;;;;;5114120;28;20483;-74
2021/08/06 03:56:16;;;;;;;3.97;3.67;;;;;;;;;;5114433;28;20441;-74
2021/08/06 03:58:45;;;;;;;8.97;4.60;;;;;;;;;;5113926;28;20443;-74
2021/08/06 04:01:12;;;;;;;6.90;4.70;;;;;;;;;;5113913;28;20445;-71
2021/08/06 04:03:39;;;;;;;6.20;4.90;;;;;;;;;;5113593;28;20955;-74
2021/08/06 04:06:06;;;;;;;5.73;5.23;;;;;;;;;;5114165;28;20794;-74
2021/08/06 04:08:34;;;;;;;9.40;4.87;;;;;;;;;;5113936;28;20439;-74
2021/08/06 04:11:01;;;;;;;7.00;4.77;;;;;;;;;;5113875;28;20439;-74
2021/08/06 04:13:28;;;;;;;5.97;4.30;;;;;;;;;;5113744;28;20481;-72
2021/08/06 04:15:56;;;;;;;8.63;5.30;;;;;;;;;;5113816;28;20439;-74
2021/08/06 04:18:24;;;;;;;5.40;4.47;;;;;;;;;;5113712;28;20439;-73
2021/08/06 04:20:51;;;;;;;7.17;5.20;;;;;;;;;;5114146;28;20449;-73
2021/08/06 04:23:18;;;;;;;5.20;4.70;;;;;;;;;;5113297;28;20517;-74
2021/08/06 04:25:45;;;;;;;5.07;4.47;;;;;;;;;;5114132;28;20799;-73
2021/08/06 04:28:12;;;;;;;6.40;5.00;;;;;;;;;;5114092;28;20439;-73
2021/08/06 04:30:39;;;;;;;5.53;4.20;;;;;;;;;;5109516;28;20451;-74
2021/08/06 04:33:08;;;;;;;7.13;4.70;;;;;;;;;;5104766;28;20449;-74
2021/08/06 04:35:35;;;;;;;9.70;4.97;;;;;;;;;;5113065;28;20444;-74
2021/08/06 04:38:02;;;;;;;4.47;4.07;;;;;;;;;;5115460;28;20445;-74
2021/08/06 04:40:30;;;;;;;7.10;4.50;;;;;;;;;;5117770;28;20861;-74
2021/08/06 04:42:57;;;;;;;4.37;3.97;;;;;;;;;;5117507;28;20437;-74
2021/08/06 04:45:25;;;;;;;4.30;3.90;;;;;;;;;;5117570;28;20443;-74
2021/08/06 04:47:55;;;;;;;5.30;4.40;;;;;;;;;;5117419;28;20929;-74
2021/08/06 04:50:24;;;;;;;5.60;4.20;;;;;;;;;;5117860;28;20807;-74
2021/08/06 04:52:51;;;;;;;7.70;4.70;;;;;;;;;;5117015;28;20526;-74
2021/08/06 04:55:19;;;;;;;4.43;4.10;;;;;;;;;;5116819;28;20528;-74
2021/08/06 04:57:46;;;;;;;8.30;5.07;;;;;;;;;;5117264;28;20443;-74
2021/08/06 05:00:14;;;;;;;7.43;3.97;;;;;;;;;;5111358;28;20528;-74
2021/08/06 05:02:41;;;;;;;5.43;4.37;;;;;;;;;;5096707;28;20923;-74
2021/08/06 05:05:08;;;;;;;4.40;4.00;;;;;;;;;;5097022;28;20454;-73
2021/08/06 05:07:37;;;;;;;4.40;4.00;;;;;;;;;;5096307;28;20931;-73
2021/08/06 05:10:04;;;;;;;4.53;4.13;;;;;;;;;;5097003;28;20443;-73
2021/08/06 05:12:31;;;;;;;4.80;3.80;;;;;;;;;;5096816;28;20472;-73
2021/08/06 05:14:59;;;;;;;4.80;4.40;;;;;;;;;;5096959;28;20475;-74
2021/08/06 05:17:26;;;;;;;5.87;4.40;;;;;;;;;;5096171;28;20441;-74
2021/08/06 05:19:53;;;;;;;4.37;3.93;;;;;;;;;;5096495;28;20439;-74
2021/08/06 05:22:20;;;;;;;5.33;4.00;;;;;;;;;;5096454;28;20439;-74
2021/08/06 05:24:49;;;;;;;5.73;4.20;;;;;;;;;;5096063;28;20479;-75
2021/08/06 05:27:16;;;;;;;5.83;4.20;;;;;;;;;;5097158;28;20446;-74
2021/08/06 05:29:43;;;;;;;10.23;4.37;;;;;;;;;;5096125;28;20446;-75
2021/08/06 05:32:10;;;;;;;4.63;4.23;;;;;;;;;;5095941;28;20448;-75
2021/08/06 05:34:37;;;;;;;9.67;4.40;;;;;;;;;;5096162;28;20825;-75
2021/08/06 05:37:05;;;;;;;4.70;4.00;;;;;;;;;;5096137;28;20800;-74
2021/08/06 05:39:32;;;;;;;7.17;5.27;;;;;;;;;;5095908;28;20444;-75
2021/08/06 05:42:01;;;;;;;4.37;3.97;;;;;;;;;;5096029;28;20519;-75
2021/08/06 05:44:28;;;;;;;7.83;4.37;;;;;;;;;;5096510;28;20446;-78
2021/08/06 05:46:55;;;;;;;4.97;4.57;;;;;;;;;;5096310;28;20435;-77
2021/08/06 05:49:22;;;;;;;5.17;4.77;;;;;;;;;;5095844;28;20535;-77
2021/08/06 05:51:50;;;;;;;4.60;4.20;;;;;;;;;;5095735;28;20456;-77
2021/08/06 05:54:17;;;;;;;4.43;4.03;;;;;;;;;;5095928;28;20480;-77
2021/08/06 05:56:44;;;;;;;7.17;4.57;;;;;;;;;;5095499;28;20961;-77
2021/08/06 05:59:12;;;;;;;6.70;4.20;;;;;;;;;;5095973;28;20454;-77
2021/08/06 06:01:40;;;;;;;6.37;4.47;;;;;;;;;;5095499;28;20432;-77
2021/08/06 06:04:07;;;;;;;4.87;4.20;;;;;;;;;;5095296;28;20455;-77
2021/08/06 06:06:34;;;;;;;4.77;4.33;;;;;;;;;;5095076;28;20964;-77
2021/08/06 06:09:01;;;;;;;4.10;3.80;;;;;;;;;;5096069;28;20793;-77
2021/08/06 06:11:28;;;;;;;4.57;4.10;;;;;;;;;;5095523;28;20442;-77
2021/08/06 06:14:00;;;;;;;4.43;4.03;;;;;;;;;;5095327;28;20476;-77
2021/08/06 06:16:28;;;;;;;4.97;4.37;;;;;;;;;;5095104;28;20443;-77
2021/08/06 06:18:56;;;;;;;5.50;5.00;;;;;;;;;;5095829;28;20448;-77
2021/08/06 06:21:23;;;;;;;5.27;4.33;;;;;;;;;;5095868;28;20444;-75
2021/08/06 06:23:50;;;;;;;5.30;4.10;;;;;;;;;;5094930;28;20467;-75
2021/08/06 06:26:17;;;;;;;5.00;3.90;;;;;;;;;;5094815;28;20452;-75
2021/08/06 06:28:44;;;;;;;5.83;4.80;;;;;;;;;;5094703;28;20438;-75
2021/08/06 06:31:12;;;;;;;3.83;3.50;;;;;;;;;;5094707;28;20444;-75
2021/08/06 06:33:40;;;;;;;7.53;3.97;;;;;;;;;;5094637;28;20932;-75
2021/08/06 06:36:07;;;;;;;5.90;3.93;;;;;;;;;;5095387;28;20757;-75
2021/08/06 06:38:35;;;;;;;3.83;3.47;;;;;;;;;;5094738;28;20487;-76
2021/08/06 06:41:02;;;;;;;3.77;3.47;;;;;;;;;;5094475;28;20441;-75
2021/08/06 06:43:29;;;;;;;3.77;3.47;;;;;;;;;;5095344;28;20873;-76
2021/08/06 06:45:56;;;;;;;3.93;3.57;;;;;;;;;;5095002;28;20541;-75
2021/08/06 06:48:25;;;;;;;3.83;3.53;;;;;;;;;;5094358;28;20447;-75
2021/08/06 06:50:54;;;;;;;6.10;3.80;;;;;;;;;;5094640;28;20447;-75
2021/08/06 06:53:21;;;;;;;4.53;3.10;;;;;;;;;;5094158;28;20441;-75
2021/08/06 06:55:48;;;;;;;3.33;3.13;;;;;;;;;;5094437;28;20516;-75
2021/08/06 06:58:15;;;;;;;4.17;3.87;;;;;;;;;;5094486;28;20545;-76
2021/08/06 07:00:42;;;;;;;3.50;3.20;;;;;;;;;;5094457;28;20455;-77
2021/08/06 07:03:10;;;;;;;5.63;3.67;;;;;;;;;;5094429;28;20447;-76
2021/08/06 07:05:37;;;;;;;3.70;3.40;;;;;;;;;;5094405;28;20451;-76
2021/08/06 07:08:06;;;;;;;3.77;3.20;;;;;;;;;;5093955;28;20436;-76
2021/08/06 07:10:33;;;;;;;3.27;3.07;;;;;;;;;;5094308;28;20451;-76
2021/08/06 07:13:00;;;;;;;3.80;3.50;;;;;;;;;;5094111;28;20438;-76
2021/08/06 07:15:27;;;;;;;5.33;3.53;;;;;;;;;;5093879;28;20568;-76
2021/08/06 07:17:55;;;;;;;3.70;3.40;;;;;;;;;;5093840;28;20441;-77
2021/08/06 07:20:22;;;;;;;4.67;3.90;;;;;;;;;;5093836;28;20449;-77
2021/08/06 07:22:50;;;;;;;4.83;3.50;;;;;;;;;;5094636;28;20451;-76
2021/08/06 07:25:19;;;;;;;5.10;3.90;;;;;;;;;;5094549;28;20503;-76
2021/08/06 07:27:46;;;;;;;4.80;3.40;;;;;;;;;;5093910;28;20436;-76
2021/08/06 07:30:14;;;;;;;5.50;3.13;;;;;;;;;;5093920;28;20441;-76
2021/08/06 07:32:41;;;;;;;4.27;3.53;;;;;;;;;;5094728;28;20843;-76
2021/08/06 07:35:09;;;;;;;4.10;3.70;;;;;;;;;;5094402;28;20484;-76
2021/08/06 07:37:36;;;;;;;3.50;3.20;;;;;;;;;;5094169;28;20437;-76
2021/08/06 07:40:04;;;;;;;3.50;3.20;;;;;;;;;;5094302;28;20442;-76
2021/08/06 07:42:33;;;;;;;4.03;3.40;;;;;;;;;;5093812;28;20817;-75
2021/08/06 07:45:00;;;;;;;6.50;3.43;;;;;;;;;;5093765;28;20449;-75
2021/08/06 07:47:28;;;;;;;3.10;2.73;;;;;;;;;;5093962;28;20535;-75
2021/08/06 07:49:55;;;;;;;4.23;3.00;;;;;;;;;;5093421;28;20973;-75
2021/08/06 07:52:22;;;;;;;3.80;2.93;;;;;;;;;;5094061;28;20448;-75
2021/08/06 07:54:49;;;;;;;6.60;3.80;;;;;;;;;;5093826;28;20485;-75
2021/08/06 07:57:16;;;;;;;5.20;2.70;;;;;;;;;;5093657;28;20439;-76
2021/08/06 07:59:45;;;;;;;4.13;2.93;;;;;;;;;;5093285;28;21128;-76
2021/08/06 08:02:12;;;;;;;3.60;3.30;;;;;;;;;;5093161;28;20472;-76
2021/08/06 08:04:39;;;;;;;3.97;3.57;;;;;;;;;;5093392;28;20446;-76
2021/08/06 08:07:07;;;;;;;3.27;3.00;;;;;;;;;;5093478;28;20445;-76
2021/08/06 08:09:34;;;;;;;2.97;2.77;;;;;;;;;;5094331;28;20528;-77
2021/08/06 08:12:01;;;;;;;5.53;3.77;;;;;;;;;;5093501;28;20442;-75
2021/08/06 08:14:28;;;;;;;4.70;3.30;;;;;;;;;;5097192;28;20481;-75
2021/08/06 08:16:57;;;;;;;3.10;2.90;;;;;;;;;;5097374;28;20439;-75
2021/08/06 08:19:24;;;;;;;5.23;3.70;;;;;;;;;;5097823;28;20533;-75
2021/08/06 08:21:51;;;;;;;5.00;3.53;;;;;;;;;;5097596;28;20448;-75
2021/08/06 08:24:18;;;;;;;3.97;3.67;;;;;;;;;;5097237;28;20475;-75
2021/08/06 08:26:46;;;;;;;3.53;3.23;;;;;;;;;;5097612;28;20437;-75
2021/08/06 08:29:14;;;;;;;4.17;3.80;;;;;;;;;;5097100;28;20445;-75
2021/08/06 08:31:42;;;;;;;4.50;4.10;;;;;;;;;;5097386;28;20444;-75
2021/08/06 08:34:10;;;;;;;4.67;4.27;;;;;;;;;;5097268;28;20444;-75
2021/08/06 08:36:37;;;;;;;3.47;3.27;;;;;;;;;;5097277;28;20481;-75
2021/08/06 08:39:05;;;;;;;4.20;3.80;;;;;;;;;;5097218;28;20462;-76
2021/08/06 08:41:33;;;;;;;3.67;3.33;;;;;;;;;;5097157;28;20616;-76
2021/08/06 08:44:00;;;;;;;3.67;3.37;;;;;;;;;;5096802;28;20969;-76
2021/08/06 08:46:29;;;;;;;4.03;3.43;;;;;;;;;;5097705;28;20447;-75
2021/08/06 08:48:57;;;;;;;4.30;3.90;;;;;;;;;;5097020;28;20440;-76
2021/08/06 08:51:27;;;;;;;3.73;3.43;;;;;;;;;;5096980;28;20545;-76
2021/08/06 08:53:54;;;;;;;5.03;3.60;;;;;;;;;;5097114;28;20444;-76
2021/08/06 08:56:21;;;;;;;4.70;3.60;;;;;;;;;;5097009;28;20470;-76
2021/08/06 08:58:49;;;;;;;3.23;3.03;;;;;;;;;;5096639;28;20436;-76
2021/08/06 09:01:16;;;;;;;6.20;3.10;;;;;;;;;;5096989;28;20442;-76
2021/08/06 09:03:46;;;;;;;4.00;3.53;;;;;;;;;;5096413;28;20451;-76
2021/08/06 09:06:13;;;;;;;3.50;3.20;;;;;;;;;;5096706;28;20569;-75
2021/08/06 09:08:42;;;;;;;3.13;2.93;;;;;;;;;;5096987;28;20442;-75
2021/08/06 09:11:24;;;;;;;6.80;3.70;;;;;;;;;;5096634;28;20549;-75
2021/08/06 09:13:51;;;;;;;4.13;3.80;;;;;;;;;;5096404;28;20928;-75
2021/08/06 09:16:18;;;;;;;3.87;3.57;;;;;;;;;;5096092;28;20479;-75
2021/08/06 09:18:46;;;;;;;3.73;3.47;;;;;;;;;;5096518;28;20529;-75
2021/08/06 09:21:23;;;;;;;3.27;3.07;;;;;;;;;;5096093;28;20443;-76
2021/08/06 09:23:53;;;;;;;3.53;3.23;;;;;;;;;;5095534;28;20986;-75
2021/08/06 09:26:32;;;;;;;3.70;3.40;;;;;;;;;;5096085;28;20444;-75
2021/08/06 09:29:00;;;;;;;4.97;3.70;;;;;;;;;;5096669;28;20496;-76
2021/08/06 09:31:27;;;;;;;3.93;3.23;;;;;;;;;;5096297;28;20431;-75
2021/08/06 09:34:08;;;;;;;3.63;3.30;;;;;;;;;;5096164;28;20439;-76
2021/08/06 09:36:35;;;;;;;4.73;4.43;;;;;;;;;;5096659;28;20523;-74
2021/08/06 09:39:13;;;;;;;4.17;3.77;;;;;;;;;;5096161;28;20473;-76
2021/08/06 09:41:41;;;;;;;4.00;3.20;;;;;;;;;;5095813;28;20419;-75
2021/08/06 09:44:15;;;;;;;3.93;3.50;;;;;;;;;;5096058;28;20463;-76
2021/08/06 09:46:42;;;;;;;6.30;4.10;;;;;;;;;;5095693;28;20964;-74
2021/08/06 09:49:09;;;;;;;5.73;4.30;;;;;;;;;;5096031;28;20477;-75
2021/08/06 09:51:37;;;;;;;4.10;3.80;;;;;;;;;;5095550;28;20496;-75
2021/08/06 09:54:18;;;;;;;4.20;3.80;;;;;;;;;;5096203;28;20451;-75
2021/08/06 09:56:46;;;;;;;4.20;3.90;;;;;;;;;;5095722;28;20520;-75
2021/08/06 09:59:14;;;;;;;4.50;4.20;;;;;;;;;;5095560;28;20527;-75
2021/08/06 10:01:41;;;;;;;3.97;3.67;;;;;;;;;;5095568;28;20443;-75
2021/08/06 10:04:15;;;;;;;4.03;3.73;;;;;;;;;;5095241;28;20446;-75
2021/08/06 10:06:56;;;;;;;4.27;4.03;;;;;;;;;;5095268;28;20475;-74
2021/08/06 10:09:25;;;;;;;4.30;3.70;;;;;;;;;;5095248;28;20466;-74
2021/08/06 10:11:53;;;;;;;5.07;3.63;;;;;;;;;;5095514;28;20492;-75
2021/08/06 10:14:20;;;;;;;4.40;4.00;;;;;;;;;;5095531;28;20755;-74
2021/08/06 10:16:47;;;;;;;3.60;3.33;;;;;;;;;;5094936;28;20471;-75
2021/08/06 10:19:14;;;;;;;5.67;3.37;;;;;;;;;;5095368;28;20441;-75
2021/08/06 10:21:42;;;;;;;4.07;3.77;;;;;;;;;;5094913;28;20497;-75
2021/08/06 10:24:10;;;;;;;3.63;3.27;;;;;;;;;;5095143;28;20578;-75
2021/08/06 10:26:38;;;;;;;4.63;3.27;;;;;;;;;;5094798;28;20547;-75
2021/08/06 10:29:06;;;;;;;4.47;3.50;;;;;;;;;;5094903;28;20952;-75
2021/08/06 10:31:33;;;;;;;3.90;3.50;;;;;;;;;;5095112;28;20450;-74
2021/08/06 10:34:05;;;;;;;3.93;3.63;;;;;;;;;;5095109;28;20446;-75
2021/08/06 10:36:39;;;;;;;6.03;3.77;;;;;;;;;;5094017;28;20555;-73
2021/08/06 10:39:06;;;;;;;5.07;3.33;;;;;;;;;;5094907;28;20447;-75
2021/08/06 10:41:49;;;;;;;2.90;2.70;;;;;;;;;;5094599;28;20934;-74
2021/08/06 10:44:17;;;;;;;3.33;2.50;;;;;;;;;;5094652;28;20431;-75
2021/08/06 10:46:58;;;;;;;3.50;3.20;;;;;;;;;;5094694;28;20438;-76
2021/08/06 10:49:25;;;;;;;2.40;2.20;;;;;;;;;;5094482;28;20424;-75
2021/08/06 10:52:07;;;;;;;2.63;2.33;;;;;;;;;;5094926;28;20435;-75
2021/08/06 10:54:35;;;;;;;3.50;3.30;;;;;;;;;;5093896;28;20542;-75
2021/08/06 10:57:15;;;;;;;3.83;3.23;;;;;;;;;;5094625;28;20502;-74
2021/08/06 10:59:44;;;;;;;3.10;2.87;;;;;;;;;;5094284;28;20929;-75
2021/08/06 11:02:30;;;;;;;2.63;2.50;;;;;;;;;;5094873;28;20526;-74
2021/08/06 11:04:57;;;;;;;3.00;2.80;;;;;;;;;;5094989;28;20478;-74
2021/08/06 11:07:32;;;;;;;3.77;2.97;;;;;;;;;;5094787;28;20449;-75
2021/08/06 11:09:59;;;;;;;2.93;2.73;;;;;;;;;;5094362;28;20909;-78
2021/08/06 11:12:31;;;;;;;2.97;2.77;;;;;;;;;;5094530;28;20441;-75
2021/08/06 11:15:03;;;;;;;3.00;2.80;;;;;;;;;;5095220;28;20431;-75
2021/08/06 11:17:45;;;;;;;3.13;2.83;;;;;;;;;;5094325;28;20910;-75
2021/08/06 11:20:13;;;;;;;3.10;2.90;;;;;;;;;;5094540;28;20435;-70
2021/08/06 11:22:41;;;;;;;2.80;2.60;;;;;;;;;;5093721;28;20845;-74
2021/08/06 11:25:14;;;;;;;2.90;2.70;;;;;;;;;;5094029;28;20453;-75
2021/08/06 11:27:42;;;;;;;3.57;3.27;;;;;;;;;;5093898;28;20470;-75
2021/08/06 11:30:12;;;;;;;3.30;3.10;;;;;;;;;;5094045;28;20534;-74
2021/08/06 11:32:48;;;;;;;3.43;3.23;;;;;;;;;;5094197;28;20458;-77
2021/08/06 11:35:16;;;;;;;3.07;2.73;;;;;;;;;;5093619;28;20972;-75
2021/08/06 11:37:48;;;;;;;3.13;2.87;;;;;;;;;;5093598;28;20448;-75
2021/08/06 11:40:16;;;;;;;3.20;2.93;;;;;;;;;;5093619;28;20464;-74
2021/08/06 11:42:43;;;;;;;3.80;3.50;;;;;;;;;;5093594;28;20897;-73
2021/08/06 11:45:13;;;;;;;3.40;3.20;;;;;;;;;;5093786;28;20443;-75
2021/08/06 11:47:44;;;;;;;3.60;3.30;;;;;;;;;;5094201;28;20895;-75
2021/08/06 11:50:12;;;;;;;3.07;2.87;;;;;;;;;;5094245;28;20455;-76
2021/08/06 11:52:40;;;;;;;3.87;3.30;;;;;;;;;;5093700;28;20526;-74
2021/08/06 11:55:08;;;;;;;4.00;3.70;;;;;;;;;;5093810;28;20455;-77
2021/08/06 11:57:45;;;;;;;4.20;3.80;;;;;;;;;;5093603;28;20497;-76
2021/08/06 12:00:17;;;;;;;4.20;3.07;;;;;;;;;;5093612;28;20444;-75
2021/08/06 12:02:45;;;;;;;4.13;3.83;;;;;;;;;;5093238;28;20527;-76
2021/08/06 12:05:22;;;;;;;4.37;3.50;;;;;;;;;;5093560;28;20448;-76
2021/08/06 12:07:49;;;;;;;5.90;3.20;;;;;;;;;;5093534;28;20801;-75
2021/08/06 12:10:16;;;;;;;4.43;3.63;;;;;;;;;;5094366;28;20472;-76
2021/08/06 12:12:43;;;;;;;7.43;3.80;;;;;;;;;;5093499;28;20799;-75
2021/08/06 12:15:22;;;;;;;3.70;3.40;;;;;;;;;;5093427;28;20532;-75
2021/08/06 12:17:50;;;;;;;3.80;3.50;;;;;;;;;;5093765;28;20883;-75
2021/08/06 12:20:35;;;;;;;3.73;3.43;;;;;;;;;;5093304;28;20464;-74
2021/08/06 12:23:03;;;;;;;3.50;3.20;;;;;;;;;;5093223;28;20493;-76
2021/08/06 12:25:32;;;;;;;4.33;3.83;;;;;;;;;;5092980;28;20444;-76
2021/08/06 12:27:59;;;;;;;5.57;3.50;;;;;;;;;;5093303;28;20443;-77
2021/08/06 12:30:28;;;;;;;3.50;3.30;;;;;;;;;;5092911;28;20447;-72
2021/08/06 12:32:56;;;;;;;3.70;3.40;;;;;;;;;;5093311;28;20542;-76
2021/08/06 12:35:24;;;;;;;4.17;3.87;;;;;;;;;;5092793;28;20522;-74
2021/08/06 12:37:53;;;;;;;3.83;3.53;;;;;;;;;;5093207;28;20657;-73
2021/08/06 12:40:20;;;;;;;4.47;3.20;;;;;;;;;;5093021;28;20821;-66
2021/08/06 12:42:47;;;;;;;6.90;3.53;;;;;;;;;;5094019;28;20527;-74
2021/08/06 12:45:18;;;;;;;3.03;2.83;;;;;;;;;;5093226;28;20520;-74
2021/08/06 12:47:48;;;;;;;4.13;2.97;;;;;;;;;;5093771;28;20590;-73
2021/08/06 12:50:17;;;;;;;5.63;3.03;;;;;;;;;;5093436;28;20543;-72
2021/08/06 12:52:45;;;;;;;2.80;2.60;;;;;;;;;;5093256;28;20534;-73
2021/08/06 12:55:13;;;;;;;3.57;2.60;;;;;;;;;;5092910;28;20799;-72
2021/08/06 12:57:44;;;;;;;3.20;2.60;;;;;;;;;;5092577;28;20585;-72
2021/08/06 13:00:23;;;;;;;6.60;2.70;;;;;;;;;;5095758;28;20429;-72
2021/08/06 13:03:02;;;;;;;2.23;2.00;;;;;;;;;;5103426;28;20456;-72
2021/08/06 13:05:29;;;;;;;3.10;2.10;;;;;;;;;;5116629;28;20470;-73
2021/08/06 13:07:57;;;;;;;2.00;1.80;;;;;;;;;;5116998;28;20478;-74
2021/08/06 13:10:25;;;;;;;3.53;2.13;;;;;;;;;;5117030;28;20438;-71
2021/08/06 13:12:52;;;;;;;1.80;1.70;;;;;;;;;;5117573;28;20446;-71
2021/08/06 13:15:19;;;;;;;2.53;2.30;;;;;;;;;;5116648;28;20535;-73
2021/08/06 13:17:46;;;;;;;3.93;2.20;;;;;;;;;;5116847;28;20961;-72
2021/08/06 13:20:15;;;;;;;3.80;2.10;;;;;;;;;;5117470;28;20466;-72
2021/08/06 13:22:43;;;;;;;3.23;1.93;;;;;;;;;;5116758;28;20440;-72
2021/08/06 13:25:10;;;;;;;1.93;1.83;;;;;;;;;;5117378;28;20458;-72
2021/08/06 13:27:37;;;;;;;4.97;2.90;;;;;;;;;;5116412;28;20463;-73
2021/08/06 13:30:07;;;;;;;1.80;1.70;;;;;;;;;;5116798;28;20789;-72
2021/08/06 13:32:34;;;;;;;4.60;2.00;;;;;;;;;;5098633;28;20476;-72
2021/08/06 13:35:02;;;;;;;3.30;1.87;;;;;;;;;;5095900;28;20446;-72
2021/08/06 13:37:30;;;;;;;2.70;1.90;;;;;;;;;;5095804;28;20473;-73
2021/08/06 13:39:58;;;;;;;3.27;2.30;;;;;;;;;;5095799;28;20439;-72
2021/08/06 13:42:25;;;;;;;2.67;2.33;;;;;;;;;;5096966;28;20438;-72
2021/08/06 13:44:53;;;;;;;2.60;1.80;;;;;;;;;;5096208;28;20435;-71
2021/08/06 13:47:20;;;;;;;3.07;2.03;;;;;;;;;;5095677;28;20440;-72
2021/08/06 13:49:47;;;;;;;3.63;2.10;;;;;;;;;;5096046;28;20441;-73
2021/08/06 13:52:14;;;;;;;2.00;1.90;;;;;;;;;;5095928;28;20443;-72
2021/08/06 13:54:43;;;;;;;3.37;2.43;;;;;;;;;;5096328;28;20557;-73
2021/08/06 13:57:10;;;;;;;2.50;2.30;;;;;;;;;;5095406;28;20485;-73
2021/08/06 13:59:37;;;;;;;3.27;2.10;;;;;;;;;;5095764;28;20476;-74
2021/08/06 14:02:05;;;;;;;4.63;2.27;;;;;;;;;;5095644;28;20496;-71
2021/08/06 14:04:32;;;;;;;2.80;2.10;;;;;;;;;;5095763;28;20437;-73
2021/08/06 14:07:01;;;;;;;2.10;1.90;;;;;;;;;;5095467;28;20428;-74
2021/08/06 14:09:29;;;;;;;1.93;1.83;;;;;;;;;;5095131;28;20440;-73
2021/08/06 14:11:58;;;;;;;4.30;2.60;;;;;;;;;;5095057;28;20543;-74
2021/08/06 14:14:25;;;;;;;2.40;2.20;;;;;;;;;;5095177;28;20530;-75
2021/08/06 14:16:53;;;;;;;3.30;2.43;;;;;;;;;;5095308;28;20472;-74
2021/08/06 14:19:20;;;;;;;2.67;2.40;;;;;;;;;;5095330;28;20533;-74
2021/08/06 14:21:48;;;;;;;3.47;2.13;;;;;;;;;;5095684;28;20433;-75
2021/08/06 14:24:15;;;;;;;3.10;2.30;;;;;;;;;;5094673;28;21019;-73
2021/08/06 14:26:44;;;;;;;2.67;2.20;;;;;;;;;;5095225;28;20444;-73
2021/08/06 14:29:12;;;;;;;3.10;2.40;;;;;;;;;;5095562;28;20446;-74
2021/08/06 14:31:39;;;;;;;3.40;2.53;;;;;;;;;;5094652;28;20457;-71
2021/08/06 14:34:07;;;;;;;2.90;2.40;;;;;;;;;;5095050;28;20807;-72
2021/08/06 14:36:34;;;;;;;4.60;2.40;;;;;;;;;;5094952;28;20628;-72
2021/08/06 14:39:02;;;;;;;2.70;2.43;;;;;;;;;;5095431;28;20517;-75
2021/08/06 14:41:29;;;;;;;5.53;2.53;;;;;;;;;;5094622;28;20496;-72
2021/08/06 14:43:56;;;;;;;3.87;2.50;;;;;;;;;;5095491;28;20441;-74
2021/08/06 14:46:25;;;;;;;2.47;2.30;;;;;;;;;;5095278;28;20943;-73
2021/08/06 14:48:52;;;;;;;3.90;3.17;;;;;;;;;;5094831;28;20443;-73
2021/08/06 14:51:19;;;;;;;4.00;2.37;;;;;;;;;;5094794;28;20472;-73